sensor_id;sensor_type;location;lat;lon;timestamp;temperature;humidity
16700;DHT22;8466;52.286;21.124;2023-02-28T00:02:03;-4.70;99.90
16700;DHT22;8466;52.286;21.124;2023-02-28T00:04:32;-4.70;99.90
16700;DHT22;8466;52.286;21.124;2023-02-28T00:07:04;-4.80;99.90
16700;DHT22;8466;52.286;21.124;2023-02-28T00:09:32;-4.80;99.90
16700;DHT22;8466;52.286;21.124;2023-02-28T00:12:01;-4.80;99.90
16700;DHT22;8466;52.286;21.124;2023-02-28T00:14:39;-4.80;99.90
16700;DHT22;8466;52.286;21.124;2023-02-28T00:17:07;-4.90;99.90
16700;DHT22;8466;52.286;21.124;2023-02-28T00:19:37;-4.90;99.90
16700;DHT22;8466;52.286;21.124;2023-02-28T00:22:06;-4.90;99.90
16700;DHT22;8466;52.286;21.124;2023-02-28T00:24:35;-4.90;99.90
16700;DHT22;8466;52.286;21.124;2023-02-28T00:27:04;-4.90;99.90
16700;DHT22;8466;52.286;21.124;2023-02-28T00:29:33;-5.00;99.90
16700;DHT22;8466;52.286;21.124;2023-02-28T00:32:05;-5.00;99.90
16700;DHT22;8466;52.286;21.124;2023-02-28T00:34:34;-5.10;99.90
16700;DHT22;8466;52.286;21.124;2023-02-28T00:37:05;-5.10;99.90
16700;DHT22;8466;52.286;21.124;2023-02-28T00:39:34;-5.10;99.90
16700;DHT22;8466;52.286;21.124;2023-02-28T00:42:04;-5.20;99.90
16700;DHT22;8466;52.286;21.124;2023-02-28T00:44:33;-5.20;99.90
16700;DHT22;8466;52.286;21.124;2023-02-28T00:47:04;-5.20;99.90
16700;DHT22;8466;52.286;21.124;2023-02-28T00:49:33;-5.30;99.90
16700;DHT22;8466;52.286;21.124;2023-02-28T00:52:02;-5.40;99.90
16700;DHT22;8466;52.286;21.124;2023-02-28T00:54:31;-5.40;99.90
16700;DHT22;8466;52.286;21.124;2023-02-28T00:57:00;-5.40;99.90
16700;DHT22;8466;52.286;21.124;2023-02-28T00:59:28;-5.40;99.90
16700;DHT22;8466;52.286;21.124;2023-02-28T01:01:57;-5.40;99.90
16700;DHT22;8466;52.286;21.124;2023-02-28T01:04:27;-5.50;99.90
16700;DHT22;8466;52.286;21.124;2023-02-28T01:06:56;-5.50;99.90
16700;DHT22;8466;52.286;21.124;2023-02-28T01:09:24;-5.50;99.90
16700;DHT22;8466;52.286;21.124;2023-02-28T01:11:53;-5.50;99.90
16700;DHT22;8466;52.286;21.124;2023-02-28T01:14:22;-5.60;99.90
16700;DHT22;8466;52.286;21.124;2023-02-28T01:16:50;-5.50;99.90
16700;DHT22;8466;52.286;21.124;2023-02-28T01:19:19;-5.50;99.90
16700;DHT22;8466;52.286;21.124;2023-02-28T01:21:50;-5.50;99.90
16700;DHT22;8466;52.286;21.124;2023-02-28T01:24:19;-5.50;99.90
16700;DHT22;8466;52.286;21.124;2023-02-28T01:26:48;-5.50;99.90
16700;DHT22;8466;52.286;21.124;2023-02-28T01:29:17;-5.50;99.90
16700;DHT22;8466;52.286;21.124;2023-02-28T01:31:46;-5.60;99.90
16700;DHT22;8466;52.286;21.124;2023-02-28T01:34:15;-5.60;99.90
16700;DHT22;8466;52.286;21.124;2023-02-28T01:36:46;-5.60;99.90
16700;DHT22;8466;52.286;21.124;2023-02-28T01:39:16;-5.60;99.90
16700;DHT22;8466;52.286;21.124;2023-02-28T01:41:45;-5.60;99.90
16700;DHT22;8466;52.286;21.124;2023-02-28T01:47:19;-5.60;99.90
16700;DHT22;8466;52.286;21.124;2023-02-28T01:49:49;-5.60;99.90
16700;DHT22;8466;52.286;21.124;2023-02-28T01:52:19;-5.60;99.90
16700;DHT22;8466;52.286;21.124;2023-02-28T01:54:51;-5.60;99.90
16700;DHT22;8466;52.286;21.124;2023-02-28T01:57:24;-5.70;99.90
16700;DHT22;8466;52.286;21.124;2023-02-28T01:59:58;-5.70;99.90
16700;DHT22;8466;52.286;21.124;2023-02-28T02:02:29;-5.80;99.90
16700;DHT22;8466;52.286;21.124;2023-02-28T02:05:03;-5.90;99.90
16700;DHT22;8466;52.286;21.124;2023-02-28T02:07:35;-5.90;99.90
16700;DHT22;8466;52.286;21.124;2023-02-28T02:10:12;-5.80;99.90
16700;DHT22;8466;52.286;21.124;2023-02-28T02:13:05;-5.80;99.90
16700;DHT22;8466;52.286;21.124;2023-02-28T02:15:43;-5.80;99.90
16700;DHT22;8466;52.286;21.124;2023-02-28T02:18:22;-5.80;99.90
16700;DHT22;8466;52.286;21.124;2023-02-28T02:21:22;-5.80;99.90
16700;DHT22;8466;52.286;21.124;2023-02-28T02:33:17;-5.90;99.90
16700;DHT22;8466;52.286;21.124;2023-02-28T02:35:55;-5.90;99.90
16700;DHT22;8466;52.286;21.124;2023-02-28T02:38:31;-5.90;99.90
16700;DHT22;8466;52.286;21.124;2023-02-28T02:41:08;-5.80;99.90
16700;DHT22;8466;52.286;21.124;2023-02-28T02:43:44;-5.80;99.90
16700;DHT22;8466;52.286;21.124;2023-02-28T02:46:19;-5.70;99.90
16700;DHT22;8466;52.286;21.124;2023-02-28T02:48:50;-5.80;99.90
16700;DHT22;8466;52.286;21.124;2023-02-28T02:51:22;-5.80;99.90
16700;DHT22;8466;52.286;21.124;2023-02-28T02:53:56;-5.80;99.90
16700;DHT22;8466;52.286;21.124;2023-02-28T02:56:28;-5.80;99.90
16700;DHT22;8466;52.286;21.124;2023-02-28T02:59:02;-5.90;99.90
16700;DHT22;8466;52.286;21.124;2023-02-28T03:01:32;-5.90;99.90
16700;DHT22;8466;52.286;21.124;2023-02-28T03:04:04;-5.90;99.90
16700;DHT22;8466;52.286;21.124;2023-02-28T03:06:35;-5.90;99.90
16700;DHT22;8466;52.286;21.124;2023-02-28T03:09:04;-5.90;99.90
16700;DHT22;8466;52.286;21.124;2023-02-28T03:11:33;-6.00;99.90
16700;DHT22;8466;52.286;21.124;2023-02-28T03:14:17;-6.00;99.90
16700;DHT22;8466;52.286;21.124;2023-02-28T03:17:05;-6.00;99.90
16700;DHT22;8466;52.286;21.124;2023-02-28T03:19:54;-6.00;99.90
16700;DHT22;8466;52.286;21.124;2023-02-28T03:22:40;-6.00;99.90
16700;DHT22;8466;52.286;21.124;2023-02-28T03:25:24;-6.10;99.90
16700;DHT22;8466;52.286;21.124;2023-02-28T03:28:02;-6.00;99.90
16700;DHT22;8466;52.286;21.124;2023-02-28T03:30:36;-6.10;99.90
16700;DHT22;8466;52.286;21.124;2023-02-28T03:33:09;-6.10;99.90
16700;DHT22;8466;52.286;21.124;2023-02-28T03:35:42;-6.10;99.90
16700;DHT22;8466;52.286;21.124;2023-02-28T03:38:15;-6.20;99.90
16700;DHT22;8466;52.286;21.124;2023-02-28T03:40:55;-6.20;99.90
16700;DHT22;8466;52.286;21.124;2023-02-28T03:43:29;-6.20;99.90
16700;DHT22;8466;52.286;21.124;2023-02-28T03:46:02;-6.20;99.90
16700;DHT22;8466;52.286;21.124;2023-02-28T03:48:38;-6.30;99.90
16700;DHT22;8466;52.286;21.124;2023-02-28T03:51:10;-6.30;99.90
16700;DHT22;8466;52.286;21.124;2023-02-28T03:53:44;-6.30;99.90
16700;DHT22;8466;52.286;21.124;2023-02-28T03:56:17;-6.30;99.90
16700;DHT22;8466;52.286;21.124;2023-02-28T03:58:51;-6.30;99.90
16700;DHT22;8466;52.286;21.124;2023-02-28T04:01:24;-6.30;99.90
16700;DHT22;8466;52.286;21.124;2023-02-28T04:03:56;-6.30;99.90
16700;DHT22;8466;52.286;21.124;2023-02-28T04:06:24;-6.30;99.90
16700;DHT22;8466;52.286;21.124;2023-02-28T04:08:55;-6.40;99.90
16700;DHT22;8466;52.286;21.124;2023-02-28T04:11:29;-6.30;99.90
16700;DHT22;8466;52.286;21.124;2023-02-28T04:14:00;-6.40;99.90
16700;DHT22;8466;52.286;21.124;2023-02-28T04:16:29;-6.30;99.90
16700;DHT22;8466;52.286;21.124;2023-02-28T04:19:02;-6.30;99.90
16700;DHT22;8466;52.286;21.124;2023-02-28T04:21:34;-6.40;99.90
16700;DHT22;8466;52.286;21.124;2023-02-28T04:24:05;-6.40;99.90
16700;DHT22;8466;52.286;21.124;2023-02-28T04:26:36;-6.30;99.90
16700;DHT22;8466;52.286;21.124;2023-02-28T04:29:06;-6.40;99.90
16700;DHT22;8466;52.286;21.124;2023-02-28T04:31:35;-6.30;99.90
16700;DHT22;8466;52.286;21.124;2023-02-28T04:34:04;-6.30;99.90
16700;DHT22;8466;52.286;21.124;2023-02-28T04:36:33;-6.40;99.90
16700;DHT22;8466;52.286;21.124;2023-02-28T04:39:01;-6.40;99.90
16700;DHT22;8466;52.286;21.124;2023-02-28T04:41:32;-6.40;99.90
16700;DHT22;8466;52.286;21.124;2023-02-28T04:44:01;-6.40;99.90
16700;DHT22;8466;52.286;21.124;2023-02-28T04:46:30;-6.40;99.90
16700;DHT22;8466;52.286;21.124;2023-02-28T04:48:58;-6.50;99.90
16700;DHT22;8466;52.286;21.124;2023-02-28T04:51:27;-6.40;99.90
16700;DHT22;8466;52.286;21.124;2023-02-28T04:53:56;-6.40;99.90
16700;DHT22;8466;52.286;21.124;2023-02-28T04:56:25;-6.40;99.90
16700;DHT22;8466;52.286;21.124;2023-02-28T04:58:55;-6.40;99.90
16700;DHT22;8466;52.286;21.124;2023-02-28T05:01:25;-6.40;99.90
16700;DHT22;8466;52.286;21.124;2023-02-28T05:03:56;-6.50;99.90
16700;DHT22;8466;52.286;21.124;2023-02-28T05:06:26;-6.40;99.90
16700;DHT22;8466;52.286;21.124;2023-02-28T05:08:56;-6.50;99.90
16700;DHT22;8466;52.286;21.124;2023-02-28T05:11:26;-6.50;99.90
16700;DHT22;8466;52.286;21.124;2023-02-28T05:13:58;-6.40;99.90
16700;DHT22;8466;52.286;21.124;2023-02-28T05:16:26;-6.40;99.90
16700;DHT22;8466;52.286;21.124;2023-02-28T05:18:55;-6.50;99.90
16700;DHT22;8466;52.286;21.124;2023-02-28T05:21:27;-6.50;99.90
16700;DHT22;8466;52.286;21.124;2023-02-28T05:23:58;-6.50;99.90
16700;DHT22;8466;52.286;21.124;2023-02-28T05:26:27;-6.40;99.90
16700;DHT22;8466;52.286;21.124;2023-02-28T05:28:57;-6.40;99.90
16700;DHT22;8466;52.286;21.124;2023-02-28T05:31:26;-6.40;99.90
16700;DHT22;8466;52.286;21.124;2023-02-28T05:33:55;-6.40;99.90
16700;DHT22;8466;52.286;21.124;2023-02-28T05:36:24;-6.40;99.90
16700;DHT22;8466;52.286;21.124;2023-02-28T05:38:52;-6.40;99.90
16700;DHT22;8466;52.286;21.124;2023-02-28T05:41:21;-6.40;99.90
16700;DHT22;8466;52.286;21.124;2023-02-28T05:43:50;-6.30;99.90
16700;DHT22;8466;52.286;21.124;2023-02-28T05:46:20;-6.20;99.90
16700;DHT22;8466;52.286;21.124;2023-02-28T05:48:49;-6.20;99.90
16700;DHT22;8466;52.286;21.124;2023-02-28T05:51:21;-6.20;99.90
16700;DHT22;8466;52.286;21.124;2023-02-28T05:53:53;-6.10;99.90
16700;DHT22;8466;52.286;21.124;2023-02-28T05:56:22;-6.00;99.90
16700;DHT22;8466;52.286;21.124;2023-02-28T05:58:50;-5.90;99.90
16700;DHT22;8466;52.286;21.124;2023-02-28T07:25:54;-3.20;99.90
16700;DHT22;8466;52.286;21.124;2023-02-28T07:28:24;-3.00;99.90
16700;DHT22;8466;52.286;21.124;2023-02-28T07:30:53;-2.90;99.90
16700;DHT22;8466;52.286;21.124;2023-02-28T07:33:22;-2.80;99.90
16700;DHT22;8466;52.286;21.124;2023-02-28T07:35:51;-2.70;99.90
16700;DHT22;8466;52.286;21.124;2023-02-28T07:38:20;-2.60;99.90
16700;DHT22;8466;52.286;21.124;2023-02-28T07:40:48;-2.50;99.90
16700;DHT22;8466;52.286;21.124;2023-02-28T07:43:19;-2.40;99.90
16700;DHT22;8466;52.286;21.124;2023-02-28T07:45:47;-2.20;99.90
16700;DHT22;8466;52.286;21.124;2023-02-28T07:48:16;-2.10;99.90
16700;DHT22;8466;52.286;21.124;2023-02-28T07:50:45;-2.00;99.90
16700;DHT22;8466;52.286;21.124;2023-02-28T07:53:22;-1.90;99.90
16700;DHT22;8466;52.286;21.124;2023-02-28T07:55:54;-1.80;99.90
16700;DHT22;8466;52.286;21.124;2023-02-28T07:58:25;-1.60;99.90
16700;DHT22;8466;52.286;21.124;2023-02-28T08:00:54;-1.40;99.90
16700;DHT22;8466;52.286;21.124;2023-02-28T08:03:24;-1.40;99.90
16700;DHT22;8466;52.286;21.124;2023-02-28T08:05:52;-1.30;99.90
16700;DHT22;8466;52.286;21.124;2023-02-28T08:08:21;-1.10;99.90
16700;DHT22;8466;52.286;21.124;2023-02-28T08:10:50;-1.00;99.90
16700;DHT22;8466;52.286;21.124;2023-02-28T08:13:20;-1.00;99.90
16700;DHT22;8466;52.286;21.124;2023-02-28T08:15:50;-1.00;99.90
16700;DHT22;8466;52.286;21.124;2023-02-28T08:18:19;-0.90;99.90
16700;DHT22;8466;52.286;21.124;2023-02-28T08:20:48;-0.90;99.90
16700;DHT22;8466;52.286;21.124;2023-02-28T08:23:17;-0.70;99.90
16700;DHT22;8466;52.286;21.124;2023-02-28T08:25:53;-0.60;99.90
16700;DHT22;8466;52.286;21.124;2023-02-28T08:28:21;-0.60;99.90
16700;DHT22;8466;52.286;21.124;2023-02-28T08:30:55;-0.60;99.90
16700;DHT22;8466;52.286;21.124;2023-02-28T08:33:24;-0.60;99.90
16700;DHT22;8466;52.286;21.124;2023-02-28T08:35:53;-0.60;99.90
16700;DHT22;8466;52.286;21.124;2023-02-28T08:38:23;-0.40;99.90
16700;DHT22;8466;52.286;21.124;2023-02-28T08:40:57;-0.30;99.90
16700;DHT22;8466;52.286;21.124;2023-02-28T08:43:28;-0.20;99.90
16700;DHT22;8466;52.286;21.124;2023-02-28T08:45:58;-0.20;99.90
16700;DHT22;8466;52.286;21.124;2023-02-28T08:48:29;-0.10;99.90
16700;DHT22;8466;52.286;21.124;2023-02-28T08:51:00;-0.10;99.90
16700;DHT22;8466;52.286;21.124;2023-02-28T08:53:34;-0.10;99.90
16700;DHT22;8466;52.286;21.124;2023-02-28T08:56:06;0.10;99.90
16700;DHT22;8466;52.286;21.124;2023-02-28T08:58:35;0.10;99.90
16700;DHT22;8466;52.286;21.124;2023-02-28T09:01:10;0.10;99.90
16700;DHT22;8466;52.286;21.124;2023-02-28T09:03:39;0.10;99.90
16700;DHT22;8466;52.286;21.124;2023-02-28T09:06:10;0.10;99.90
16700;DHT22;8466;52.286;21.124;2023-02-28T09:08:39;0.10;99.90
16700;DHT22;8466;52.286;21.124;2023-02-28T09:11:09;0.10;99.90
16700;DHT22;8466;52.286;21.124;2023-02-28T09:13:38;0.00;99.90
16700;DHT22;8466;52.286;21.124;2023-02-28T09:16:12;0.10;99.90
16700;DHT22;8466;52.286;21.124;2023-02-28T09:18:41;0.10;99.90
16700;DHT22;8466;52.286;21.124;2023-02-28T09:21:13;0.10;99.90
16700;DHT22;8466;52.286;21.124;2023-02-28T09:23:43;0.20;99.90
16700;DHT22;8466;52.286;21.124;2023-02-28T09:26:14;0.30;99.90
16700;DHT22;8466;52.286;21.124;2023-02-28T09:28:43;0.40;99.90
16700;DHT22;8466;52.286;21.124;2023-02-28T09:31:14;0.40;99.90
16700;DHT22;8466;52.286;21.124;2023-02-28T09:33:44;0.40;99.90
16700;DHT22;8466;52.286;21.124;2023-02-28T09:36:13;0.60;99.90
16700;DHT22;8466;52.286;21.124;2023-02-28T09:38:41;0.70;99.90
16700;DHT22;8466;52.286;21.124;2023-02-28T09:41:13;0.70;99.90
16700;DHT22;8466;52.286;21.124;2023-02-28T09:43:46;0.60;99.90
16700;DHT22;8466;52.286;21.124;2023-02-28T09:46:30;0.70;99.90
16700;DHT22;8466;52.286;21.124;2023-02-28T09:49:06;0.70;99.90
16700;DHT22;8466;52.286;21.124;2023-02-28T09:51:45;0.70;99.90
16700;DHT22;8466;52.286;21.124;2023-02-28T09:54:17;0.80;99.90
16700;DHT22;8466;52.286;21.124;2023-02-28T09:56:50;0.80;99.90
16700;DHT22;8466;52.286;21.124;2023-02-28T09:59:31;1.00;99.90
16700;DHT22;8466;52.286;21.124;2023-02-28T10:02:16;1.20;99.90
16700;DHT22;8466;52.286;21.124;2023-02-28T10:04:50;1.30;99.90
16700;DHT22;8466;52.286;21.124;2023-02-28T10:07:35;1.20;99.90
16700;DHT22;8466;52.286;21.124;2023-02-28T10:10:15;1.20;99.90
16700;DHT22;8466;52.286;21.124;2023-02-28T10:12:47;1.20;99.90
16700;DHT22;8466;52.286;21.124;2023-02-28T10:15:17;1.40;99.90
16700;DHT22;8466;52.286;21.124;2023-02-28T10:17:53;1.50;99.90
16700;DHT22;8466;52.286;21.124;2023-02-28T10:20:37;1.50;99.90
16700;DHT22;8466;52.286;21.124;2023-02-28T10:23:12;1.60;99.90
16700;DHT22;8466;52.286;21.124;2023-02-28T10:25:45;1.70;99.90
16700;DHT22;8466;52.286;21.124;2023-02-28T10:28:16;1.70;99.90
16700;DHT22;8466;52.286;21.124;2023-02-28T10:30:48;1.60;99.90
16700;DHT22;8466;52.286;21.124;2023-02-28T10:33:22;1.50;99.90
16700;DHT22;8466;52.286;21.124;2023-02-28T10:35:52;1.40;99.90
16700;DHT22;8466;52.286;21.124;2023-02-28T10:38:23;1.40;99.90
16700;DHT22;8466;52.286;21.124;2023-02-28T10:40:52;1.40;99.90
16700;DHT22;8466;52.286;21.124;2023-02-28T10:43:31;1.40;99.90
16700;DHT22;8466;52.286;21.124;2023-02-28T10:46:02;1.30;99.90
16700;DHT22;8466;52.286;21.124;2023-02-28T10:48:39;1.40;99.90
16700;DHT22;8466;52.286;21.124;2023-02-28T10:51:11;1.40;99.90
16700;DHT22;8466;52.286;21.124;2023-02-28T10:53:48;1.60;99.90
16700;DHT22;8466;52.286;21.124;2023-02-28T10:56:29;1.50;99.90
16700;DHT22;8466;52.286;21.124;2023-02-28T10:59:00;1.70;99.90
16700;DHT22;8466;52.286;21.124;2023-02-28T11:01:38;1.60;99.90
16700;DHT22;8466;52.286;21.124;2023-02-28T11:04:18;1.60;99.90
16700;DHT22;8466;52.286;21.124;2023-02-28T11:06:57;1.60;99.90
16700;DHT22;8466;52.286;21.124;2023-02-28T11:09:30;1.60;99.90
16700;DHT22;8466;52.286;21.124;2023-02-28T11:12:00;1.60;99.90
16700;DHT22;8466;52.286;21.124;2023-02-28T11:14:35;1.60;99.90
16700;DHT22;8466;52.286;21.124;2023-02-28T11:17:21;1.70;99.90
16700;DHT22;8466;52.286;21.124;2023-02-28T11:20:13;1.70;99.90
16700;DHT22;8466;52.286;21.124;2023-02-28T11:22:47;1.70;99.90
16700;DHT22;8466;52.286;21.124;2023-02-28T11:25:31;1.70;99.90
16700;DHT22;8466;52.286;21.124;2023-02-28T11:28:02;1.80;99.90
16700;DHT22;8466;52.286;21.124;2023-02-28T11:30:39;1.80;99.90
16700;DHT22;8466;52.286;21.124;2023-02-28T11:33:37;1.90;99.90
16700;DHT22;8466;52.286;21.124;2023-02-28T11:36:13;1.80;99.90
16700;DHT22;8466;52.286;21.124;2023-02-28T11:38:43;1.90;99.90
16700;DHT22;8466;52.286;21.124;2023-02-28T11:44:23;2.10;99.90
16700;DHT22;8466;52.286;21.124;2023-02-28T11:46:59;2.10;99.90
16700;DHT22;8466;52.286;21.124;2023-02-28T11:49:37;2.10;99.90
16700;DHT22;8466;52.286;21.124;2023-02-28T11:52:19;2.10;99.90
16700;DHT22;8466;52.286;21.124;2023-02-28T11:55:01;2.10;99.90
16700;DHT22;8466;52.286;21.124;2023-02-28T11:57:52;2.10;99.90
16700;DHT22;8466;52.286;21.124;2023-02-28T12:00:35;2.20;99.90
16700;DHT22;8466;52.286;21.124;2023-02-28T12:03:15;2.20;99.90
16700;DHT22;8466;52.286;21.124;2023-02-28T12:05:52;2.20;99.90
16700;DHT22;8466;52.286;21.124;2023-02-28T12:08:31;2.10;99.90
16700;DHT22;8466;52.286;21.124;2023-02-28T12:11:11;2.10;99.90
16700;DHT22;8466;52.286;21.124;2023-02-28T12:13:50;2.10;99.90
16700;DHT22;8466;52.286;21.124;2023-02-28T12:16:45;2.00;99.90
16700;DHT22;8466;52.286;21.124;2023-02-28T12:19:20;2.00;99.90
16700;DHT22;8466;52.286;21.124;2023-02-28T12:22:16;2.10;99.90
16700;DHT22;8466;52.286;21.124;2023-02-28T12:28:20;2.10;99.90
16700;DHT22;8466;52.286;21.124;2023-02-28T12:30:54;2.20;99.90
16700;DHT22;8466;52.286;21.124;2023-02-28T12:33:31;2.30;99.90
16700;DHT22;8466;52.286;21.124;2023-02-28T12:36:11;2.30;99.90
16700;DHT22;8466;52.286;21.124;2023-02-28T12:38:47;2.20;99.90
16700;DHT22;8466;52.286;21.124;2023-02-28T12:41:18;2.30;99.90
16700;DHT22;8466;52.286;21.124;2023-02-28T12:43:55;2.30;99.90
16700;DHT22;8466;52.286;21.124;2023-02-28T12:46:32;2.40;99.90
16700;DHT22;8466;52.286;21.124;2023-02-28T12:49:05;2.40;99.90
16700;DHT22;8466;52.286;21.124;2023-02-28T12:51:36;2.60;99.90
16700;DHT22;8466;52.286;21.124;2023-02-28T12:54:12;2.70;99.90
16700;DHT22;8466;52.286;21.124;2023-02-28T12:56:47;2.70;99.90
16700;DHT22;8466;52.286;21.124;2023-02-28T12:59:25;2.70;99.90
16700;DHT22;8466;52.286;21.124;2023-02-28T13:05:22;2.90;99.90
16700;DHT22;8466;52.286;21.124;2023-02-28T13:08:32;2.80;99.90
16700;DHT22;8466;52.286;21.124;2023-02-28T13:11:06;2.90;99.90
16700;DHT22;8466;52.286;21.124;2023-02-28T13:13:47;2.90;99.90
16700;DHT22;8466;52.286;21.124;2023-02-28T13:16:17;2.90;99.90
16700;DHT22;8466;52.286;21.124;2023-02-28T13:18:47;2.90;99.90
16700;DHT22;8466;52.286;21.124;2023-02-28T13:21:24;2.80;99.90
16700;DHT22;8466;52.286;21.124;2023-02-28T13:24:01;2.90;99.90
16700;DHT22;8466;52.286;21.124;2023-02-28T13:29:38;2.90;99.90
16700;DHT22;8466;52.286;21.124;2023-02-28T13:32:31;2.90;99.90
16700;DHT22;8466;52.286;21.124;2023-02-28T13:41:41;2.70;99.90
16700;DHT22;8466;52.286;21.124;2023-02-28T13:44:11;2.80;99.90
16700;DHT22;8466;52.286;21.124;2023-02-28T13:49:48;3.00;99.90
16700;DHT22;8466;52.286;21.124;2023-02-28T13:52:22;3.00;99.90
16700;DHT22;8466;52.286;21.124;2023-02-28T13:55:17;2.80;99.90
16700;DHT22;8466;52.286;21.124;2023-02-28T13:57:59;2.80;99.90
16700;DHT22;8466;52.286;21.124;2023-02-28T14:00:43;2.80;99.90
16700;DHT22;8466;52.286;21.124;2023-02-28T14:03:36;2.80;99.90
16700;DHT22;8466;52.286;21.124;2023-02-28T14:06:15;2.80;99.90
16700;DHT22;8466;52.286;21.124;2023-02-28T14:08:52;2.80;99.90
16700;DHT22;8466;52.286;21.124;2023-02-28T14:11:31;2.90;99.90
16700;DHT22;8466;52.286;21.124;2023-02-28T14:14:02;3.00;99.90
16700;DHT22;8466;52.286;21.124;2023-02-28T14:16:38;3.00;99.90
16700;DHT22;8466;52.286;21.124;2023-02-28T14:19:12;3.00;99.90
16700;DHT22;8466;52.286;21.124;2023-02-28T14:22:01;3.00;99.50
16700;DHT22;8466;52.286;21.124;2023-02-28T14:24:48;3.10;99.30
16700;DHT22;8466;52.286;21.124;2023-02-28T14:27:48;3.10;99.00
16700;DHT22;8466;52.286;21.124;2023-02-28T14:30:43;3.00;99.00
16700;DHT22;8466;52.286;21.124;2023-02-28T14:33:31;2.80;99.30
16700;DHT22;8466;52.286;21.124;2023-02-28T14:36:10;2.70;99.60
16700;DHT22;8466;52.286;21.124;2023-02-28T14:38:45;2.70;99.70
16700;DHT22;8466;52.286;21.124;2023-02-28T14:41:20;2.60;99.90
16700;DHT22;8466;52.286;21.124;2023-02-28T14:43:51;2.60;99.80
16700;DHT22;8466;52.286;21.124;2023-02-28T14:46:21;2.70;99.90
16700;DHT22;8466;52.286;21.124;2023-02-28T14:48:51;2.80;99.70
16700;DHT22;8466;52.286;21.124;2023-02-28T14:51:21;2.80;99.80
16700;DHT22;8466;52.286;21.124;2023-02-28T14:53:57;2.80;99.80
16700;DHT22;8466;52.286;21.124;2023-02-28T14:56:32;2.90;99.40
16700;DHT22;8466;52.286;21.124;2023-02-28T14:59:02;2.90;99.40
16700;DHT22;8466;52.286;21.124;2023-02-28T15:01:31;2.80;99.40
16700;DHT22;8466;52.286;21.124;2023-02-28T15:04:03;2.70;99.70
16700;DHT22;8466;52.286;21.124;2023-02-28T15:06:33;2.60;99.90
16700;DHT22;8466;52.286;21.124;2023-02-28T15:09:15;2.50;99.90
16700;DHT22;8466;52.286;21.124;2023-02-28T15:11:48;2.60;99.90
16700;DHT22;8466;52.286;21.124;2023-02-28T15:14:19;2.30;99.90
16700;DHT22;8466;52.286;21.124;2023-02-28T15:16:52;2.30;99.90
16700;DHT22;8466;52.286;21.124;2023-02-28T15:19:26;2.30;99.90
16700;DHT22;8466;52.286;21.124;2023-02-28T15:22:00;2.30;99.90
16700;DHT22;8466;52.286;21.124;2023-02-28T15:24:37;2.20;99.90
16700;DHT22;8466;52.286;21.124;2023-02-28T15:27:11;2.10;99.90
16700;DHT22;8466;52.286;21.124;2023-02-28T15:29:44;2.10;99.90
16700;DHT22;8466;52.286;21.124;2023-02-28T15:32:26;2.00;99.90
16700;DHT22;8466;52.286;21.124;2023-02-28T15:34:57;2.00;99.90
16700;DHT22;8466;52.286;21.124;2023-02-28T15:37:38;1.80;99.90
16700;DHT22;8466;52.286;21.124;2023-02-28T15:40:22;1.90;99.90
16700;DHT22;8466;52.286;21.124;2023-02-28T15:43:15;1.90;99.90
16700;DHT22;8466;52.286;21.124;2023-02-28T15:45:46;1.90;99.90
16700;DHT22;8466;52.286;21.124;2023-02-28T15:48:18;1.90;99.90
16700;DHT22;8466;52.286;21.124;2023-02-28T15:50:50;1.90;99.90
16700;DHT22;8466;52.286;21.124;2023-02-28T15:53:23;1.90;99.90
16700;DHT22;8466;52.286;21.124;2023-02-28T15:55:57;1.80;99.90
16700;DHT22;8466;52.286;21.124;2023-02-28T15:58:26;1.70;99.90
16700;DHT22;8466;52.286;21.124;2023-02-28T16:01:08;1.60;99.90
16700;DHT22;8466;52.286;21.124;2023-02-28T16:03:44;1.50;99.90
16700;DHT22;8466;52.286;21.124;2023-02-28T16:06:33;1.40;99.90
16700;DHT22;8466;52.286;21.124;2023-02-28T16:09:03;1.30;99.90
16700;DHT22;8466;52.286;21.124;2023-02-28T16:11:36;1.10;99.90
16700;DHT22;8466;52.286;21.124;2023-02-28T16:14:06;0.90;99.90
16700;DHT22;8466;52.286;21.124;2023-02-28T16:16:43;0.80;99.90
16700;DHT22;8466;52.286;21.124;2023-02-28T16:19:12;0.60;99.90
16700;DHT22;8466;52.286;21.124;2023-02-28T16:21:41;0.50;99.90
16700;DHT22;8466;52.286;21.124;2023-02-28T16:24:10;0.40;99.90
16700;DHT22;8466;52.286;21.124;2023-02-28T16:26:46;0.20;99.90
16700;DHT22;8466;52.286;21.124;2023-02-28T16:29:20;0.20;99.90
16700;DHT22;8466;52.286;21.124;2023-02-28T16:31:50;0.00;99.90
16700;DHT22;8466;52.286;21.124;2023-02-28T16:34:21;0.00;99.90
16700;DHT22;8466;52.286;21.124;2023-02-28T16:36:50;-0.10;99.90
16700;DHT22;8466;52.286;21.124;2023-02-28T16:39:22;-0.20;99.90
16700;DHT22;8466;52.286;21.124;2023-02-28T16:41:52;-0.20;99.90
16700;DHT22;8466;52.286;21.124;2023-02-28T16:44:26;-0.30;99.90
16700;DHT22;8466;52.286;21.124;2023-02-28T16:46:56;-0.40;99.90
16700;DHT22;8466;52.286;21.124;2023-02-28T16:49:26;-0.50;99.90
16700;DHT22;8466;52.286;21.124;2023-02-28T16:51:55;-0.50;99.90
16700;DHT22;8466;52.286;21.124;2023-02-28T16:54:24;-0.60;99.90
16700;DHT22;8466;52.286;21.124;2023-02-28T16:56:55;-0.60;99.90
16700;DHT22;8466;52.286;21.124;2023-02-28T16:59:24;-0.70;99.90
16700;DHT22;8466;52.286;21.124;2023-02-28T17:01:56;-0.70;99.90
16700;DHT22;8466;52.286;21.124;2023-02-28T17:04:26;-0.60;99.90
16700;DHT22;8466;52.286;21.124;2023-02-28T17:06:55;-0.60;99.90
16700;DHT22;8466;52.286;21.124;2023-02-28T17:09:24;-0.60;99.90
16700;DHT22;8466;52.286;21.124;2023-02-28T17:12:09;-0.60;99.90
16700;DHT22;8466;52.286;21.124;2023-02-28T17:14:39;-0.60;99.90
16700;DHT22;8466;52.286;21.124;2023-02-28T17:17:11;-0.70;99.90
16700;DHT22;8466;52.286;21.124;2023-02-28T17:19:44;-0.80;99.90
16700;DHT22;8466;52.286;21.124;2023-02-28T17:22:12;-0.90;99.90
16700;DHT22;8466;52.286;21.124;2023-02-28T17:24:41;-1.00;99.90
16700;DHT22;8466;52.286;21.124;2023-02-28T17:27:14;-1.10;99.90
16700;DHT22;8466;52.286;21.124;2023-02-28T17:29:43;-1.20;99.90
16700;DHT22;8466;52.286;21.124;2023-02-28T17:32:14;-1.30;99.90
16700;DHT22;8466;52.286;21.124;2023-02-28T17:34:44;-1.40;99.90
16700;DHT22;8466;52.286;21.124;2023-02-28T17:37:16;-1.50;99.90
16700;DHT22;8466;52.286;21.124;2023-02-28T17:39:45;-1.60;99.90
16700;DHT22;8466;52.286;21.124;2023-02-28T17:42:15;-1.70;99.90
16700;DHT22;8466;52.286;21.124;2023-02-28T17:44:44;-1.80;99.90
16700;DHT22;8466;52.286;21.124;2023-02-28T17:47:12;-1.80;99.90
16700;DHT22;8466;52.286;21.124;2023-02-28T17:49:41;-1.80;99.90
16700;DHT22;8466;52.286;21.124;2023-02-28T17:52:10;-1.90;99.90
16700;DHT22;8466;52.286;21.124;2023-02-28T17:54:39;-1.90;99.90
16700;DHT22;8466;52.286;21.124;2023-02-28T17:57:11;-1.90;99.90
16700;DHT22;8466;52.286;21.124;2023-02-28T17:59:43;-2.00;99.90
16700;DHT22;8466;52.286;21.124;2023-02-28T18:02:13;-2.10;99.90
16700;DHT22;8466;52.286;21.124;2023-02-28T18:04:42;-2.10;99.90
16700;DHT22;8466;52.286;21.124;2023-02-28T18:07:11;-2.10;99.90
16700;DHT22;8466;52.286;21.124;2023-02-28T18:09:40;-2.10;99.90
16700;DHT22;8466;52.286;21.124;2023-02-28T18:12:09;-2.10;99.90
16700;DHT22;8466;52.286;21.124;2023-02-28T18:14:37;-2.20;99.90
16700;DHT22;8466;52.286;21.124;2023-02-28T18:17:09;-2.20;99.90